Time;durP1;ratioP1;P1;durP2;ratioP2;P2;SDS_P1;SDS_P2;PMS_P1;PMS_P2;Temp;Humidity;BMP_temperature;BMP_pressure;BME280_temperature;BME280_humidity;BME280_pressure;Samples;Min_cycle;Max_cycle;Signal;HPM_P1;HPM_P2
2023/06/07 00:00:45;;;;;;;;;;;25.60;44.50;;;;;;5070477;28;19913;-54
2023/06/07 00:03:11;;;;;;;;;;;25.50;44.10;;;;;;5072070;28;20371;-54
2023/06/07 00:05:38;;;;;;;;;;;25.50;44.30;;;;;;5070762;28;19918;-55
2023/06/07 00:08:05;;;;;;;;;;;25.50;44.30;;;;;;5071679;28;19924;-55
2023/06/07 00:10:32;;;;;;;;;;;25.50;44.10;;;;;;5070996;28;20011;-54
2023/06/07 00:12:58;;;;;;;;;;;25.50;44.30;;;;;;5061977;28;19917;-55
2023/06/07 00:15:23;;;;;;;;;;;25.50;44.20;;;;;;5069871;28;19973;-55
2023/06/07 00:17:49;;;;;;;;;;;25.50;44.30;;;;;;5061142;28;19912;-55
2023/06/07 00:20:15;;;;;;;;;;;25.50;44.30;;;;;;5071771;28;19909;-55
2023/06/07 00:22:40;;;;;;;;;;;25.40;44.20;;;;;;5053043;28;19931;-55
2023/06/07 00:25:06;;;;;;;;;;;25.40;44.20;;;;;;5070839;28;19916;-55
2023/06/07 00:27:32;;;;;;;;;;;25.40;44.10;;;;;;5069184;28;19913;-54
2023/06/07 00:29:58;;;;;;;;;;;25.40;44.20;;;;;;5061427;28;19935;-55
2023/06/07 00:32:23;;;;;;;;;;;25.40;44.30;;;;;;5064440;28;19908;-55
2023/06/07 00:34:49;;;;;;;;;;;25.40;44.20;;;;;;5084158;28;19924;-55
2023/06/07 00:37:14;;;;;;;;;;;25.40;44.20;;;;;;5069006;28;19909;-55
2023/06/07 00:39:40;;;;;;;;;;;25.40;44.10;;;;;;5071599;28;19916;-55
2023/06/07 00:42:06;;;;;;;;;;;25.40;44.10;;;;;;5066395;28;19920;-54
2023/06/07 00:44:32;;;;;;;;;;;25.40;44.10;;;;;;5051685;28;19962;-55
2023/06/07 00:46:57;;;;;;;;;;;25.40;44.10;;;;;;5058509;28;19986;-55
2023/06/07 00:49:22;;;;;;;;;;;25.40;44.10;;;;;;5065609;28;19935;-55
2023/06/07 00:51:48;;;;;;;;;;;25.40;44.10;;;;;;5071323;28;19917;-55
2023/06/07 00:54:17;;;;;;;;;;;25.40;44.00;;;;;;5072649;28;19913;-55
2023/06/07 00:56:43;;;;;;;;;;;25.40;44.10;;;;;;5065024;28;19912;-55
2023/06/07 00:59:09;;;;;;;;;;;25.40;44.10;;;;;;5057903;28;19917;-55
2023/06/07 01:01:35;;;;;;;;;;;25.40;44.10;;;;;;5053603;28;20059;-55
2023/06/07 01:04:01;;;;;;;;;;;25.30;44.60;;;;;;5080401;28;19916;-55
2023/06/07 01:06:26;;;;;;;;;;;25.30;44.10;;;;;;5104241;28;20423;-54
2023/06/07 01:08:52;;;;;;;;;;;25.30;44.00;;;;;;5102650;28;19919;-55
2023/06/07 01:11:18;;;;;;;;;;;25.30;44.00;;;;;;5059854;28;19958;-55
2023/06/07 01:13:43;;;;;;;;;;;25.30;44.00;;;;;;5061602;28;19916;-55
2023/06/07 01:16:09;;;;;;;;;;;25.30;44.20;;;;;;5070787;28;20438;-55
2023/06/07 01:18:35;;;;;;;;;;;25.30;44.00;;;;;;5062928;28;20399;-55
2023/06/07 01:21:02;;;;;;;;;;;25.30;44.10;;;;;;5061984;28;19917;-56
2023/06/07 01:23:31;;;;;;;;;;;25.30;44.10;;;;;;5063318;28;20291;-55
2023/06/07 01:25:58;;;;;;;;;;;25.20;44.60;;;;;;5054369;28;19913;-55
2023/06/07 01:28:27;;;;;;;;;;;25.20;44.00;;;;;;5085540;28;20365;-54
2023/06/07 01:30:52;;;;;;;;;;;25.30;44.10;;;;;;5066559;28;19940;-55
2023/06/07 01:33:18;;;;;;;;;;;25.30;44.00;;;;;;5073885;28;20694;-55
2023/06/07 01:35:44;;;;;;;;;;;25.30;43.90;;;;;;5075027;28;19965;-55
2023/06/07 01:38:09;;;;;;;;;;;25.20;43.90;;;;;;5106859;28;20296;-56
2023/06/07 01:40:35;;;;;;;;;;;25.20;44.00;;;;;;5107016;28;19909;-55
2023/06/07 01:43:01;;;;;;;;;;;25.20;44.00;;;;;;5103140;28;19921;-55
2023/06/07 01:45:27;;;;;;;;;;;25.20;44.00;;;;;;5087622;28;19991;-54
2023/06/07 01:47:52;;;;;;;;;;;25.20;44.00;;;;;;5070449;28;19920;-54
2023/06/07 01:50:21;;;;;;;;;;;25.10;43.90;;;;;;5074798;28;19920;-55
2023/06/07 01:52:46;;;;;;;;;;;25.20;44.10;;;;;;5073607;28;19909;-55
2023/06/07 01:55:12;;;;;;;;;;;25.10;44.00;;;;;;5074465;28;19954;-55
2023/06/07 01:57:43;;;;;;;;;;;25.10;44.00;;;;;;5074057;28;19983;-55
2023/06/07 02:00:27;;;;;;;;;;;25.10;44.10;;;;;;5059818;28;19927;-55
2023/06/07 02:02:53;;;;;;;;;;;25.10;44.10;;;;;;5074531;28;19948;-55
2023/06/07 02:05:34;;;;;;;;;;;25.10;44.00;;;;;;5094631;28;19924;-55
2023/06/07 02:08:00;;;;;;;;;;;25.10;44.00;;;;;;5081180;28;20373;-55
2023/06/07 02:10:26;;;;;;;;;;;25.10;43.90;;;;;;5063229;28;19912;-55
2023/06/07 02:12:52;;;;;;;;;;;25.10;43.90;;;;;;5071983;28;19927;-54
2023/06/07 02:15:17;;;;;;;;;;;25.10;44.10;;;;;;5054395;28;20352;-54
2023/06/07 02:18:02;;;;;;;;;;;25.10;44.00;;;;;;5056465;28;19916;-55
2023/06/07 02:20:28;;;;;;;;;;;25.00;44.10;;;;;;5068702;28;19914;-54
2023/06/07 02:22:54;;;;;;;;;;;25.00;44.00;;;;;;5054235;28;20355;-54
2023/06/07 02:25:20;;;;;;;;;;;25.00;44.00;;;;;;5070051;28;19951;-54
2023/06/07 02:27:45;;;;;;;;;;;25.00;44.10;;;;;;5070884;28;19982;-54
2023/06/07 02:30:11;;;;;;;;;;;25.00;44.00;;;;;;5054066;28;19909;-55
2023/06/07 02:32:38;;;;;;;;;;;25.00;44.10;;;;;;5064112;28;19956;-55
2023/06/07 02:35:05;;;;;;;;;;;25.00;44.00;;;;;;5073156;28;19955;-55
2023/06/07 02:37:30;;;;;;;;;;;25.00;44.70;;;;;;5073787;28;20337;-54
2023/06/07 02:39:56;;;;;;;;;;;25.00;44.10;;;;;;5103586;28;20004;-55
2023/06/07 02:42:21;;;;;;;;;;;25.00;44.00;;;;;;5063869;28;20296;-55
2023/06/07 02:44:46;;;;;;;;;;;25.00;44.00;;;;;;5065863;28;19936;-55
2023/06/07 02:47:12;;;;;;;;;;;25.00;44.00;;;;;;5073276;28;19919;-54
2023/06/07 02:49:37;;;;;;;;;;;25.00;44.10;;;;;;5057336;28;19919;-55
2023/06/07 02:52:03;;;;;;;;;;;25.00;44.00;;;;;;5060488;28;20537;-55
2023/06/07 02:54:28;;;;;;;;;;;24.90;44.00;;;;;;5063346;28;20346;-54
2023/06/07 02:56:54;;;;;;;;;;;24.90;44.00;;;;;;5076711;28;20391;-54
2023/06/07 02:59:19;;;;;;;;;;;24.90;44.00;;;;;;5054653;28;19995;-54
2023/06/07 03:01:46;;;;;;;;;;;24.90;44.10;;;;;;5089395;28;19919;-55
2023/06/07 03:04:11;;;;;;;;;;;24.90;44.00;;;;;;5071414;28;19912;-55
2023/06/07 03:06:40;;;;;;;;;;;24.80;44.00;;;;;;5053155;28;20407;-54
2023/06/07 03:09:06;;;;;;;;;;;24.80;44.10;;;;;;5068415;28;19913;-55
2023/06/07 03:11:32;;;;;;;;;;;24.80;44.10;;;;;;5055807;28;19913;-54
2023/06/07 03:13:57;;;;;;;;;;;24.80;44.10;;;;;;5067677;28;19913;-55
2023/06/07 03:16:23;;;;;;;;;;;24.80;44.00;;;;;;5073260;28;20368;-54
2023/06/07 03:18:48;;;;;;;;;;;24.80;44.00;;;;;;5073096;28;19920;-55
2023/06/07 03:21:15;;;;;;;;;;;24.80;44.00;;;;;;5065794;28;19917;-55
2023/06/07 03:23:41;;;;;;;;;;;24.80;44.00;;;;;;5059923;28;20300;-54
2023/06/07 03:26:07;;;;;;;;;;;24.80;44.00;;;;;;5063481;28;20000;-55
2023/06/07 03:28:32;;;;;;;;;;;24.80;44.00;;;;;;5073097;28;20380;-55
2023/06/07 03:30:58;;;;;;;;;;;24.80;44.00;;;;;;5072521;28;19912;-55
2023/06/07 03:33:23;;;;;;;;;;;24.80;44.00;;;;;;5072917;28;20387;-55
2023/06/07 03:35:49;;;;;;;;;;;24.80;44.10;;;;;;5104443;28;20257;-55
2023/06/07 03:38:15;;;;;;;;;;;24.80;44.10;;;;;;5073048;28;19915;-55
2023/06/07 03:40:40;;;;;;;;;;;24.70;44.00;;;;;;5071944;28;19909;-55
2023/06/07 03:43:06;;;;;;;;;;;24.80;44.00;;;;;;5103666;27;20007;-56
2023/06/07 03:45:31;;;;;;;;;;;24.80;44.10;;;;;;5066741;28;19909;-55
2023/06/07 03:47:57;;;;;;;;;;;24.70;44.00;;;;;;5052633;28;19919;-55
2023/06/07 03:50:23;;;;;;;;;;;24.70;44.00;;;;;;5052502;28;19959;-56
2023/06/07 03:52:48;;;;;;;;;;;24.70;44.10;;;;;;5056784;28;19920;-55
2023/06/07 03:55:14;;;;;;;;;;;24.80;44.10;;;;;;5071498;28;19919;-55
2023/06/07 03:57:39;;;;;;;;;;;24.70;44.10;;;;;;5052553;28;19940;-55
2023/06/07 04:00:06;;;;;;;;;;;24.80;44.10;;;;;;5057299;28;19916;-55
2023/06/07 04:02:31;;;;;;;;;;;24.80;44.10;;;;;;5062887;28;20152;-55
2023/06/07 04:04:57;;;;;;;;;;;24.80;44.00;;;;;;5084554;28;19908;-55
2023/06/07 04:07:22;;;;;;;;;;;24.70;44.00;;;;;;5053635;28;19920;-55
2023/06/07 04:09:48;;;;;;;;;;;24.70;44.10;;;;;;5071651;28;19916;-56
2023/06/07 04:12:13;;;;;;;;;;;24.70;44.10;;;;;;5064967;28;20291;-55
2023/06/07 04:14:39;;;;;;;;;;;24.70;44.20;;;;;;5051717;28;19916;-55
2023/06/07 04:17:05;;;;;;;;;;;24.70;44.20;;;;;;5053632;28;19955;-55
2023/06/07 04:19:30;;;;;;;;;;;24.70;44.20;;;;;;5060861;28;20291;-55
2023/06/07 04:21:56;;;;;;;;;;;24.70;44.20;;;;;;5072396;28;20065;-54
2023/06/07 04:24:21;;;;;;;;;;;24.70;44.30;;;;;;5071315;28;19913;-54
2023/06/07 04:26:48;;;;;;;;;;;24.70;44.30;;;;;;5067258;28;19917;-55
2023/06/07 04:29:14;;;;;;;;;;;24.70;44.30;;;;;;5063054;28;20337;-55
2023/06/07 04:31:41;;;;;;;;;;;24.70;44.20;;;;;;5072011;28;19982;-55
2023/06/07 04:34:09;;;;;;;;;;;24.70;44.30;;;;;;5071148;28;20361;-55
2023/06/07 04:36:37;;;;;;;;;;;24.70;44.30;;;;;;5062029;28;20328;-55
2023/06/07 04:39:05;;;;;;;;;;;24.70;44.30;;;;;;5064954;28;19912;-55
2023/06/07 04:41:32;;;;;;;;;;;24.60;44.20;;;;;;5051235;28;19931;-55
2023/06/07 04:44:00;;;;;;;;;;;24.70;44.40;;;;;;5070333;28;19930;-55
2023/06/07 04:46:26;;;;;;;;;;;24.60;44.30;;;;;;5071738;28;19919;-55
2023/06/07 04:48:52;;;;;;;;;;;24.60;44.30;;;;;;5061185;28;20242;-55
2023/06/07 04:51:20;;;;;;;;;;;24.70;44.40;;;;;;5060419;28;19980;-53
2023/06/07 04:53:49;;;;;;;;;;;24.70;44.40;;;;;;5067030;28;20289;-56
2023/06/07 04:56:14;;;;;;;;;;;24.60;44.20;;;;;;5068350;28;19916;-55
2023/06/07 04:58:42;;;;;;;;;;;24.70;44.30;;;;;;5060619;28;19985;-55
2023/06/07 05:01:11;;;;;;;;;;;24.60;44.30;;;;;;5065524;28;20007;-56
2023/06/07 05:03:41;;;;;;;;;;;24.60;44.30;;;;;;5055891;28;19913;-56
2023/06/07 05:06:06;;;;;;;;;;;24.60;44.30;;;;;;5064530;28;19912;-55
2023/06/07 05:08:32;;;;;;;;;;;24.50;44.50;;;;;;5059327;28;19932;-55
2023/06/07 05:10:57;;;;;;;;;;;24.40;44.60;;;;;;5055006;28;19909;-56
2023/06/07 05:13:23;;;;;;;;;;;24.40;44.70;;;;;;5062834;28;19981;-55
2023/06/07 05:15:51;;;;;;;;;;;24.40;44.60;;;;;;5072883;28;20098;-55
2023/06/07 05:18:18;;;;;;;;;;;24.40;44.60;;;;;;5074671;28;20417;-55
2023/06/07 05:20:44;;;;;;;;;;;24.40;44.60;;;;;;5062171;28;19917;-55
2023/06/07 05:23:09;;;;;;;;;;;24.50;44.50;;;;;;5055402;28;19916;-55
2023/06/07 05:25:35;;;;;;;;;;;24.50;44.40;;;;;;5066363;28;19912;-55
2023/06/07 05:28:01;;;;;;;;;;;24.50;44.30;;;;;;5065522;28;19913;-54
2023/06/07 05:30:26;;;;;;;;;;;24.60;44.30;;;;;;5097307;28;20289;-55
2023/06/07 05:32:52;;;;;;;;;;;24.60;44.20;;;;;;5075108;28;19913;-54
2023/06/07 05:35:17;;;;;;;;;;;24.60;44.20;;;;;;5074932;28;19956;-55
2023/06/07 05:37:43;;;;;;;;;;;24.60;44.30;;;;;;5069570;28;19916;-55
2023/06/07 05:40:10;;;;;;;;;;;24.60;44.20;;;;;;5054380;28;20340;-54
2023/06/07 05:42:38;;;;;;;;;;;24.50;44.10;;;;;;5064243;28;19922;-54
2023/06/07 05:45:07;;;;;;;;;;;24.50;44.10;;;;;;5064877;28;20314;-54
2023/06/07 05:47:32;;;;;;;;;;;24.50;44.10;;;;;;5074937;28;19916;-54
2023/06/07 05:49:58;;;;;;;;;;;24.60;44.20;;;;;;5074495;28;19950;-54
2023/06/07 05:52:23;;;;;;;;;;;24.50;44.00;;;;;;5074905;28;19913;-55
2023/06/07 05:54:50;;;;;;;;;;;24.60;44.10;;;;;;5073360;28;19972;-54
2023/06/07 05:57:15;;;;;;;;;;;24.60;44.10;;;;;;5071739;28;19916;-55
2023/06/07 05:59:41;;;;;;;;;;;24.60;44.00;;;;;;5071650;28;20273;-55
2023/06/07 06:02:07;;;;;;;;;;;24.60;44.10;;;;;;5059946;28;19920;-55
2023/06/07 06:04:32;;;;;;;;;;;24.60;44.20;;;;;;5056831;28;19912;-54
2023/06/07 06:06:58;;;;;;;;;;;24.50;44.10;;;;;;5055633;28;19917;-55
2023/06/07 06:09:23;;;;;;;;;;;24.50;44.40;;;;;;5071731;28;19922;-55
2023/06/07 06:11:49;;;;;;;;;;;24.50;44.10;;;;;;5073962;28;20449;-54
2023/06/07 06:14:15;;;;;;;;;;;24.50;44.20;;;;;;5059826;28;19928;-55
2023/06/07 06:16:40;;;;;;;;;;;24.60;44.20;;;;;;5064274;28;19917;-54
2023/06/07 06:19:05;;;;;;;;;;;24.60;44.10;;;;;;5056661;28;20296;-55
2023/06/07 06:21:31;;;;;;;;;;;24.60;44.10;;;;;;5064767;28;19917;-54
2023/06/07 06:23:56;;;;;;;;;;;24.70;44.00;;;;;;5057523;28;19940;-55
2023/06/07 06:26:22;;;;;;;;;;;24.60;43.90;;;;;;5072339;28;19919;-55
2023/06/07 06:28:48;;;;;;;;;;;24.70;43.90;;;;;;5064827;28;20019;-54
2023/06/07 06:31:13;;;;;;;;;;;24.70;44.00;;;;;;5058848;28;19962;-55
2023/06/07 06:33:38;;;;;;;;;;;24.70;44.00;;;;;;5097635;28;19928;-55
2023/06/07 06:36:04;;;;;;;;;;;24.70;44.10;;;;;;5069486;28;19916;-55
2023/06/07 06:38:29;;;;;;;;;;;24.60;43.90;;;;;;5064579;28;20027;-55
2023/06/07 06:40:55;;;;;;;;;;;24.70;44.00;;;;;;5065782;28;20418;-54
2023/06/07 06:43:21;;;;;;;;;;;24.70;44.10;;;;;;5061762;28;19967;-55
2023/06/07 06:45:46;;;;;;;;;;;24.60;44.00;;;;;;5069331;28;19917;-54
2023/06/07 06:48:12;;;;;;;;;;;24.70;44.10;;;;;;5064197;28;19920;-55
2023/06/07 06:50:37;;;;;;;;;;;24.70;43.90;;;;;;5100525;28;19912;-55
2023/06/07 06:53:02;;;;;;;;;;;24.70;43.90;;;;;;5070951;28;19912;-55
2023/06/07 06:55:29;;;;;;;;;;;24.70;44.10;;;;;;5059754;28;19929;-55
2023/06/07 06:57:55;;;;;;;;;;;24.70;44.00;;;;;;5054974;28;20396;-55
2023/06/07 07:00:20;;;;;;;;;;;24.70;44.10;;;;;;5055282;28;20000;-55
2023/06/07 07:02:46;;;;;;;;;;;24.70;44.10;;;;;;5063530;28;19913;-55
2023/06/07 07:05:11;;;;;;;;;;;24.70;44.10;;;;;;5067241;28;19920;-55
2023/06/07 07:07:37;;;;;;;;;;;24.70;44.10;;;;;;5067493;28;21463;-55
2023/06/07 07:10:03;;;;;;;;;;;24.70;44.10;;;;;;5062623;28;20271;-55
2023/06/07 07:12:29;;;;;;;;;;;24.70;44.10;;;;;;5070470;28;20185;-55
2023/06/07 07:14:54;;;;;;;;;;;24.70;44.00;;;;;;5069954;28;19940;-55
2023/06/07 07:17:20;;;;;;;;;;;24.70;44.00;;;;;;5069988;28;19913;-54
2023/06/07 07:19:46;;;;;;;;;;;24.70;44.10;;;;;;5071464;28;19912;-55
2023/06/07 07:22:11;;;;;;;;;;;24.70;44.00;;;;;;5058095;28;19916;-54
2023/06/07 07:24:36;;;;;;;;;;;24.70;44.00;;;;;;5057999;28;19920;-55
2023/06/07 07:27:02;;;;;;;;;;;24.70;44.00;;;;;;5065009;28;19913;-55
2023/06/07 07:29:27;;;;;;;;;;;24.70;44.10;;;;;;5070761;28;19932;-54
2023/06/07 07:31:53;;;;;;;;;;;24.70;44.00;;;;;;5065297;28;19916;-53
2023/06/07 07:34:18;;;;;;;;;;;24.70;43.90;;;;;;5066501;28;20683;-54
2023/06/07 07:36:44;;;;;;;;;;;24.70;43.80;;;;;;5072144;28;19934;-55
2023/06/07 07:39:15;;;;;;;;;;;24.70;43.80;;;;;;5070067;28;19956;-55
2023/06/07 07:41:41;;;;;;;;;;;24.70;43.80;;;;;;5071669;28;19977;-54
2023/06/07 07:44:06;;;;;;;;;;;24.70;43.80;;;;;;5071009;28;19920;-55
2023/06/07 07:46:32;;;;;;;;;;;24.70;43.80;;;;;;5066907;28;19920;-54
2023/06/07 07:48:57;;;;;;;;;;;24.70;43.80;;;;;;5059642;28;19917;-54
2023/06/07 07:51:23;;;;;;;;;;;24.70;43.80;;;;;;5070263;28;19908;-54
2023/06/07 07:53:52;;;;;;;;;;;24.70;43.90;;;;;;5070493;28;19909;-54
2023/06/07 07:56:17;;;;;;;;;;;24.70;44.40;;;;;;5067014;28;19913;-54
2023/06/07 07:58:44;;;;;;;;;;;24.70;43.80;;;;;;5067197;28;19935;-54
2023/06/07 08:01:10;;;;;;;;;;;24.80;43.80;;;;;;5062713;28;19916;-54
2023/06/07 08:03:36;;;;;;;;;;;24.70;43.60;;;;;;5067679;28;19920;-53
2023/06/07 08:06:01;;;;;;;;;;;24.70;43.70;;;;;;5061635;28;19912;-55
2023/06/07 08:08:27;;;;;;;;;;;24.80;43.80;;;;;;5068098;28;19945;-56
2023/06/07 08:10:53;;;;;;;;;;;24.70;43.80;;;;;;5068007;28;20372;-53
2023/06/07 08:13:18;;;;;;;;;;;24.80;43.90;;;;;;5060900;28;19917;-54
2023/06/07 08:15:45;;;;;;;;;;;24.80;43.70;;;;;;5062254;28;19923;-54
2023/06/07 08:18:10;;;;;;;;;;;24.80;44.00;;;;;;5058491;28;19992;-54
2023/06/07 08:20:36;;;;;;;;;;;24.80;44.20;;;;;;5065534;28;19916;-54
2023/06/07 08:23:02;;;;;;;;;;;24.80;44.40;;;;;;5071177;28;19908;-54
2023/06/07 08:25:27;;;;;;;;;;;24.80;43.90;;;;;;5063843;28;20292;-53
2023/06/07 08:27:53;;;;;;;;;;;24.90;44.00;;;;;;5056418;28;20329;-54
2023/06/07 08:30:18;;;;;;;;;;;24.90;44.00;;;;;;5065397;28;19920;-54
2023/06/07 08:32:45;;;;;;;;;;;24.90;44.30;;;;;;5098115;28;19923;-54
2023/06/07 08:35:10;;;;;;;;;;;24.90;44.00;;;;;;5070360;28;20284;-54
2023/06/07 08:37:36;;;;;;;;;;;24.90;44.60;;;;;;5062902;28;19959;-55
2023/06/07 08:40:04;;;;;;;;;;;24.90;44.20;;;;;;5066980;28;19970;-55
2023/06/07 08:42:30;;;;;;;;;;;24.90;44.50;;;;;;5071958;28;19927;-55
2023/06/07 08:44:55;;;;;;;;;;;24.90;44.00;;;;;;5074227;28;19991;-55
2023/06/07 08:47:21;;;;;;;;;;;25.00;44.10;;;;;;5069120;28;19943;-54
2023/06/07 08:49:47;;;;;;;;;;;24.90;44.50;;;;;;5071327;28;19919;-54
2023/06/07 08:52:12;;;;;;;;;;;25.00;44.20;;;;;;5063212;28;19912;-55
2023/06/07 08:54:41;;;;;;;;;;;25.00;44.30;;;;;;5092258;28;19960;-54
2023/06/07 08:57:07;;;;;;;;;;;25.00;44.50;;;;;;5063125;28;19913;-55
2023/06/07 08:59:33;;;;;;;;;;;25.00;44.40;;;;;;5071182;28;19955;-54
2023/06/07 09:01:58;;;;;;;;;;;25.10;44.60;;;;;;5062718;28;19956;-55
2023/06/07 09:04:24;;;;;;;;;;;25.10;44.10;;;;;;5072116;28;19939;-54
2023/06/07 09:06:51;;;;;;;;;;;25.00;44.90;;;;;;5073186;28;19920;-54
2023/06/07 09:09:16;;;;;;;;;;;25.10;44.50;;;;;;5062477;28;19921;-54
2023/06/07 09:11:42;;;;;;;;;;;25.10;44.50;;;;;;5067714;28;19913;-54
2023/06/07 09:14:07;;;;;;;;;;;25.20;44.00;;;;;;5063660;28;19935;-54
2023/06/07 09:16:33;;;;;;;;;;;25.10;44.60;;;;;;5062609;28;20296;-55
2023/06/07 09:18:58;;;;;;;;;;;25.20;44.30;;;;;;5099956;28;19916;-54
2023/06/07 09:21:24;;;;;;;;;;;25.20;44.30;;;;;;5069243;28;19920;-54
2023/06/07 09:23:50;;;;;;;;;;;25.30;44.60;;;;;;5067256;28;19949;-54
2023/06/07 09:26:16;;;;;;;;;;;25.30;44.50;;;;;;5068280;28;19912;-54
2023/06/07 09:28:41;;;;;;;;;;;25.30;44.50;;;;;;5074704;28;20399;-55
2023/06/07 09:31:08;;;;;;;;;;;25.30;44.60;;;;;;5069772;28;19913;-55
2023/06/07 09:33:34;;;;;;;;;;;25.30;44.60;;;;;;5074250;28;19913;-54
2023/06/07 09:36:10;;;;;;;;;;;25.30;44.10;;;;;;5063969;28;20330;-53
2023/06/07 09:38:36;;;;;;;;;;;25.40;44.30;;;;;;5064123;28;19913;-53
2023/06/07 09:41:03;;;;;;;;;;;25.40;44.40;;;;;;5072487;28;19919;-53
2023/06/07 09:43:47;;;;;;;;;;;25.40;44.40;;;;;;5070502;28;20218;-53
2023/06/07 09:46:13;;;;;;;;;;;25.40;44.40;;;;;;5068100;28;20402;-53
2023/06/07 09:48:45;;;;;;;;;;;25.40;44.40;;;;;;5066449;28;19974;-54
2023/06/07 09:51:11;;;;;;;;;;;25.40;44.30;;;;;;5056692;28;19912;-52
2023/06/07 09:53:49;;;;;;;;;;;25.40;44.40;;;;;;5061657;28;19915;-52
2023/06/07 09:56:18;;;;;;;;;;;25.40;43.90;;;;;;5095040;28;19940;-53
2023/06/07 09:58:49;;;;;;;;;;;25.40;44.00;;;;;;5061963;28;19924;-53
2023/06/07 10:01:35;;;;;;;;;;;25.50;43.80;;;;;;5064836;28;19916;-53
2023/06/07 10:04:01;;;;;;;;;;;25.50;44.30;;;;;;5054420;28;19912;-53
2023/06/07 10:06:27;;;;;;;;;;;25.60;43.80;;;;;;5059580;28;20046;-53
2023/06/07 10:08:52;;;;;;;;;;;25.60;44.00;;;;;;5073997;28;19931;-53
2023/06/07 10:11:18;;;;;;;;;;;25.50;44.10;;;;;;5065297;28;19917;-53
2023/06/07 10:13:43;;;;;;;;;;;25.60;44.40;;;;;;5063069;28;19916;-54
2023/06/07 10:16:10;;;;;;;;;;;25.60;43.80;;;;;;5061546;28;20282;-53
2023/06/07 10:18:36;;;;;;;;;;;25.60;43.80;;;;;;5064084;28;19938;-53
2023/06/07 10:21:01;;;;;;;;;;;25.60;43.80;;;;;;5056432;28;19913;-53
2023/06/07 10:23:35;;;;;;;;;;;25.60;43.60;;;;;;5062460;28;19913;-53
2023/06/07 10:26:04;;;;;;;;;;;25.70;43.50;;;;;;5070646;28;19923;-53
2023/06/07 10:28:40;;;;;;;;;;;25.70;43.60;;;;;;5047216;28;19932;-53
2023/06/07 10:31:09;;;;;;;;;;;25.70;44.00;;;;;;5069351;28;20280;-53
2023/06/07 10:33:34;;;;;;;;;;;25.70;44.30;;;;;;5098727;27;20373;-53
2023/06/07 10:36:00;;;;;;;;;;;25.70;44.30;;;;;;5099236;27;19932;-53
2023/06/07 10:38:28;;;;;;;;;;;25.70;43.70;;;;;;5099499;28;19913;-53
2023/06/07 10:40:54;;;;;;;;;;;25.70;43.90;;;;;;5076244;28;19978;-53
2023/06/07 10:43:19;;;;;;;;;;;25.70;44.10;;;;;;5065156;28;20339;-53
2023/06/07 10:45:45;;;;;;;;;;;25.80;43.80;;;;;;5061134;28;19916;-53
2023/06/07 10:48:37;;;;;;;;;;;25.80;44.10;;;;;;5061747;28;20368;-53
2023/06/07 10:51:02;;;;;;;;;;;25.80;43.60;;;;;;5063753;28;19964;-53
2023/06/07 10:53:48;;;;;;;;;;;25.90;43.60;;;;;;5047648;28;19979;-53
2023/06/07 10:56:26;;;;;;;;;;;25.90;43.70;;;;;;5062045;28;20021;-53
2023/06/07 10:58:52;;;;;;;;;;;25.90;44.00;;;;;;5102386;27;19924;-60
2023/06/07 11:01:26;;;;;;;;;;;25.90;43.80;;;;;;5073596;28;19908;-52
2023/06/07 11:03:52;;;;;;;;;;;25.90;43.80;;;;;;5059850;28;20353;-53
2023/06/07 11:06:18;;;;;;;;;;;25.90;43.70;;;;;;5063087;28;19931;-53
2023/06/07 11:08:43;;;;;;;;;;;26.00;43.30;;;;;;5063786;28;19932;-53
2023/06/07 11:11:27;;;;;;;;;;;26.10;43.20;;;;;;5098804;27;19965;-53
2023/06/07 11:13:53;;;;;;;;;;;26.10;43.20;;;;;;5066529;28;19912;-53
2023/06/07 11:16:24;;;;;;;;;;;26.20;43.20;;;;;;5072604;28;20403;-53
2023/06/07 11:18:53;;;;;;;;;;;26.20;43.70;;;;;;5057377;28;20300;-54
2023/06/07 11:21:18;;;;;;;;;;;26.20;43.30;;;;;;5059854;28;19913;-52
2023/06/07 11:23:44;;;;;;;;;;;26.20;43.40;;;;;;5093106;28;20361;-53
2023/06/07 11:26:12;;;;;;;;;;;26.20;43.10;;;;;;5057681;28;20381;-52
2023/06/07 11:28:39;;;;;;;;;;;26.30;43.00;;;;;;5062081;28;19923;-52
2023/06/07 11:31:08;;;;;;;;;;;26.30;43.80;;;;;;5068205;28;20003;-52
2023/06/07 11:33:34;;;;;;;;;;;26.30;43.20;;;;;;5064852;28;19913;-52
2023/06/07 11:36:00;;;;;;;;;;;26.30;43.40;;;;;;5064624;28;19908;-53
2023/06/07 11:38:28;;;;;;;;;;;26.30;43.30;;;;;;5104455;28;19909;-53
2023/06/07 11:40:54;;;;;;;;;;;26.40;43.00;;;;;;5070746;28;20345;-52
2023/06/07 11:43:20;;;;;;;;;;;26.40;43.00;;;;;;5070854;28;19928;-53
2023/06/07 11:45:46;;;;;;;;;;;26.40;43.20;;;;;;5062910;28;19916;-52
2023/06/07 11:48:11;;;;;;;;;;;26.40;43.20;;;;;;5102546;28;19970;-53
2023/06/07 11:50:37;;;;;;;;;;;26.40;43.00;;;;;;5069625;28;19919;-53
2023/06/07 11:53:03;;;;;;;;;;;26.50;43.00;;;;;;5104961;28;20372;-52
2023/06/07 11:55:29;;;;;;;;;;;26.50;43.10;;;;;;5066853;28;19956;-52
2023/06/07 11:57:55;;;;;;;;;;;26.50;43.30;;;;;;5098899;28;19938;-52
2023/06/07 12:00:21;;;;;;;;;;;26.50;43.00;;;;;;5061592;28;19928;-52
2023/06/07 12:02:47;;;;;;;;;;;26.60;43.10;;;;;;5062487;28;19909;-52
2023/06/07 12:05:13;;;;;;;;;;;26.60;42.90;;;;;;5055141;28;19984;-52
2023/06/07 12:07:40;;;;;;;;;;;26.60;43.10;;;;;;5064155;28;20049;-52
2023/06/07 12:10:06;;;;;;;;;;;26.60;43.10;;;;;;5068787;28;19944;-52
2023/06/07 12:12:31;;;;;;;;;;;26.60;43.40;;;;;;5063621;28;20011;-53
2023/06/07 12:15:03;;;;;;;;;;;26.60;43.20;;;;;;5069975;28;20007;-51
2023/06/07 12:17:34;;;;;;;;;;;26.60;43.90;;;;;;5066168;28;19916;-52
2023/06/07 12:20:09;;;;;;;;;;;26.60;42.90;;;;;;5071634;28;19916;-52
2023/06/07 12:22:35;;;;;;;;;;;26.70;43.40;;;;;;5065958;28;19925;-52
2023/06/07 12:25:09;;;;;;;;;;;26.70;43.00;;;;;;5098440;28;20449;-52
2023/06/07 12:27:36;;;;;;;;;;;26.70;43.10;;;;;;5061040;28;19927;-52
2023/06/07 12:30:04;;;;;;;;;;;26.70;43.50;;;;;;5060145;28;19908;-52
2023/06/07 12:32:30;;;;;;;;;;;26.60;43.40;;;;;;5069176;28;19962;-53
2023/06/07 12:34:58;;;;;;;;;;;26.60;43.20;;;;;;5069470;28;19986;-52
2023/06/07 12:37:24;;;;;;;;;;;26.70;43.10;;;;;;5104966;28;19909;-53
2023/06/07 12:39:50;;;;;;;;;;;26.80;43.30;;;;;;5086276;28;20018;-52
2023/06/07 12:42:15;;;;;;;;;;;26.80;43.30;;;;;;5059930;28;19978;-53
2023/06/07 12:44:41;;;;;;;;;;;26.80;43.00;;;;;;5067075;28;19916;-52
2023/06/07 12:47:07;;;;;;;;;;;26.80;43.20;;;;;;5067612;28;19942;-53
2023/06/07 12:49:32;;;;;;;;;;;26.80;43.20;;;;;;5067379;28;19987;-52
2023/06/07 12:51:58;;;;;;;;;;;26.80;43.40;;;;;;5067922;28;20265;-53
2023/06/07 12:54:23;;;;;;;;;;;26.80;42.90;;;;;;5103176;28;19987;-52
2023/06/07 12:56:48;;;;;;;;;;;26.90;42.90;;;;;;5067859;28;19927;-52
2023/06/07 12:59:14;;;;;;;;;;;26.90;43.10;;;;;;5092379;28;19973;-53
2023/06/07 13:01:39;;;;;;;;;;;26.90;42.60;;;;;;5067380;28;19947;-52
2023/06/07 13:04:05;;;;;;;;;;;27.00;42.90;;;;;;5061834;28;19940;-52
2023/06/07 13:06:31;;;;;;;;;;;27.00;42.60;;;;;;5063315;28;19912;-52
2023/06/07 13:09:16;;;;;;;;;;;27.00;42.80;;;;;;5067288;28;19962;-52
2023/06/07 13:11:42;;;;;;;;;;;26.90;42.90;;;;;;5063577;28;19913;-53
2023/06/07 13:14:08;;;;;;;;;;;27.00;42.70;;;;;;5064722;28;19927;-52
2023/06/07 13:16:34;;;;;;;;;;;27.00;42.50;;;;;;5056893;28;19921;-52
2023/06/07 13:18:59;;;;;;;;;;;27.00;43.10;;;;;;5087086;28;19917;-53
2023/06/07 13:21:25;;;;;;;;;;;27.00;42.70;;;;;;5067389;28;19916;-53
2023/06/07 13:23:51;;;;;;;;;;;27.00;43.20;;;;;;5054300;28;20329;-53
2023/06/07 13:26:16;;;;;;;;;;;26.90;43.30;;;;;;5063197;28;20066;-53
2023/06/07 13:28:43;;;;;;;;;;;26.80;43.10;;;;;;5069092;28;19912;-52
2023/06/07 13:31:09;;;;;;;;;;;26.80;42.60;;;;;;5094350;27;19919;-52
2023/06/07 13:33:34;;;;;;;;;;;26.80;42.80;;;;;;5061515;28;19913;-54
2023/06/07 13:36:00;;;;;;;;;;;26.70;42.10;;;;;;5061017;28;20608;-54
2023/06/07 13:38:25;;;;;;;;;;;26.70;41.90;;;;;;5074347;28;19949;-54
2023/06/07 13:40:51;;;;;;;;;;;26.70;41.80;;;;;;5066357;28;20380;-54
2023/06/07 13:43:16;;;;;;;;;;;26.70;42.00;;;;;;5072305;28;20417;-54
2023/06/07 13:45:42;;;;;;;;;;;26.80;41.60;;;;;;5069209;28;20357;-55
2023/06/07 13:48:10;;;;;;;;;;;26.80;41.90;;;;;;5087745;28;19912;-54
2023/06/07 13:50:36;;;;;;;;;;;26.80;41.60;;;;;;5075552;28;19908;-54
2023/06/07 13:53:01;;;;;;;;;;;26.80;41.70;;;;;;5073502;28;19912;-54
2023/06/07 13:55:27;;;;;;;;;;;26.70;41.50;;;;;;5068669;28;19913;-54
2023/06/07 13:57:53;;;;;;;;;;;26.70;41.90;;;;;;5095076;28;20018;-54
2023/06/07 14:00:18;;;;;;;;;;;26.70;41.60;;;;;;5072448;28;19963;-55
2023/06/07 14:02:44;;;;;;;;;;;26.70;41.40;;;;;;5066646;28;19917;-54
2023/06/07 14:05:09;;;;;;;;;;;26.70;41.20;;;;;;5068303;28;19983;-53
2023/06/07 14:07:35;;;;;;;;;;;26.70;41.30;;;;;;5070968;28;20016;-53
2023/06/07 14:10:01;;;;;;;;;;;26.70;41.20;;;;;;5066260;28;19970;-54
2023/06/07 14:12:26;;;;;;;;;;;26.70;42.00;;;;;;5067623;28;19916;-53